createdAt,value
2023-02-05T00:01:23.457Z,28.13
2023-02-05T00:03:50.970Z,23.35
2023-02-05T00:06:17.625Z,24.88
2023-02-05T00:08:44.211Z,20.23
2023-02-05T00:11:10.800Z,18.30
2023-02-05T00:13:39.012Z,18.90
2023-02-05T00:16:13.839Z,19.38
2023-02-05T00:21:07.592Z,18.92
2023-02-05T00:23:34.964Z,19.50
2023-02-05T00:26:02.366Z,22.05
2023-02-05T00:28:31.491Z,19.45
2023-02-05T00:30:58.195Z,17.58
2023-02-05T00:33:24.922Z,16.20
2023-02-05T00:35:51.617Z,13.57
2023-02-05T00:38:18.224Z,12.80
2023-02-05T00:40:44.846Z,13.38
2023-02-05T00:43:11.529Z,13.60
2023-02-05T00:45:38.118Z,15.65
2023-02-05T00:48:05.179Z,13.77
2023-02-05T00:50:33.460Z,13.48
2023-02-05T00:53:00.187Z,16.33
2023-02-05T00:55:27.125Z,15.25
2023-02-05T00:57:54.495Z,15.02
2023-02-05T01:00:22.191Z,15.57
2023-02-05T01:02:48.882Z,15.25
2023-02-05T01:05:16.069Z,15.50
2023-02-05T01:07:42.745Z,17.70
2023-02-05T01:10:09.541Z,17.75
2023-02-05T01:12:36.283Z,15.85
2023-02-05T01:15:04.872Z,16.80
2023-02-05T01:17:31.569Z,15.68
2023-02-05T01:19:58.332Z,14.32
2023-02-05T01:22:25.048Z,13.13
2023-02-05T01:24:51.715Z,13.30
2023-02-05T01:27:18.506Z,12.88
2023-02-05T01:29:45.234Z,12.43
2023-02-05T01:32:11.889Z,15.82
2023-02-05T01:34:38.552Z,13.32
2023-02-05T01:37:05.145Z,13.13
2023-02-05T01:39:31.829Z,12.77
2023-02-05T01:41:58.448Z,11.43
2023-02-05T01:44:25.073Z,11.32
2023-02-05T01:46:55.410Z,12.27
2023-02-05T01:49:30.106Z,13.77
2023-02-05T01:52:01.453Z,11.00
2023-02-05T01:54:31.419Z,14.70
2023-02-05T01:57:06.263Z,11.75
2023-02-05T02:02:06.212Z,11.10
2023-02-05T02:04:45.088Z,11.52
2023-02-05T02:07:15.985Z,10.45
2023-02-05T02:09:45.787Z,11.05
2023-02-05T02:12:17.052Z,11.25
2023-02-05T02:14:47.295Z,11.48
2023-02-05T02:17:16.621Z,12.10
2023-02-05T02:19:52.157Z,11.23
2023-02-05T02:22:40.576Z,12.00
2023-02-05T02:25:35.311Z,12.80
2023-02-05T02:28:18.762Z,12.70
2023-02-05T02:31:11.438Z,12.40
2023-02-05T02:33:55.003Z,12.48
2023-02-05T02:36:27.414Z,11.98
2023-02-05T02:39:02.383Z,12.68
2023-02-05T02:41:35.379Z,12.73
2023-02-05T02:44:12.376Z,16.70
2023-02-05T02:46:47.392Z,11.35
2023-02-05T02:49:24.950Z,14.63
2023-02-05T02:51:53.076Z,11.90
2023-02-05T02:54:21.680Z,12.43
2023-02-05T02:56:51.423Z,13.05
2023-02-05T02:59:23.775Z,12.82
2023-02-05T03:01:55.517Z,12.50
2023-02-05T03:04:30.149Z,13.10
2023-02-05T03:07:09.988Z,12.57
2023-02-05T03:09:50.926Z,13.38
2023-02-05T03:12:20.040Z,12.23
2023-02-05T03:14:46.723Z,11.93
2023-02-05T03:17:18.517Z,12.35
2023-02-05T03:19:57.909Z,12.68
2023-02-05T03:22:25.600Z,13.75
2023-02-05T03:24:53.119Z,13.00
2023-02-05T03:27:21.973Z,13.45
2023-02-05T03:29:50.234Z,13.90
2023-02-05T03:32:47.607Z,14.60
2023-02-05T03:35:56.559Z,14.68
2023-02-05T03:38:38.746Z,14.70
2023-02-05T03:41:48.973Z,14.18
2023-02-05T03:44:40.485Z,16.30
2023-02-05T03:47:25.250Z,15.10
2023-02-05T03:50:14.165Z,15.68
2023-02-05T03:52:51.126Z,14.35
2023-02-05T03:55:23.681Z,17.70
2023-02-05T03:57:58.865Z,16.38
2023-02-05T04:00:27.052Z,14.73
2023-02-05T04:02:55.001Z,14.55
2023-02-05T04:05:26.138Z,13.65
2023-02-05T04:07:55.043Z,14.52
2023-02-05T04:10:25.713Z,13.38
2023-02-05T04:12:52.387Z,14.00
2023-02-05T04:15:19.439Z,15.25
2023-02-05T04:17:50.496Z,14.90
2023-02-05T04:20:17.816Z,15.50
2023-02-05T04:22:44.561Z,16.13
2023-02-05T04:25:11.187Z,14.93
2023-02-05T04:27:38.355Z,15.02
2023-02-05T04:30:06.722Z,15.55
2023-02-05T04:32:36.392Z,15.23
2023-02-05T04:35:03.824Z,16.25
2023-02-05T04:37:30.663Z,17.20
2023-02-05T04:39:57.338Z,17.23
2023-02-05T04:42:24.026Z,17.02
2023-02-05T04:44:52.700Z,17.00
2023-02-05T04:47:19.307Z,18.15
2023-02-05T04:49:46.450Z,19.60
2023-02-05T04:52:13.227Z,18.17
2023-02-05T04:54:39.940Z,17.55
2023-02-05T04:57:06.591Z,18.83
2023-02-05T04:59:33.210Z,19.85
2023-02-05T05:02:00.263Z,19.38
2023-02-05T05:04:27.134Z,18.40
2023-02-05T05:06:53.721Z,17.65
2023-02-05T05:09:24.116Z,16.83
2023-02-05T05:11:54.326Z,17.95
2023-02-05T05:14:20.949Z,17.05
2023-02-05T05:16:49.095Z,15.93
2023-02-05T05:19:16.169Z,16.58
2023-02-05T05:21:42.875Z,17.27
2023-02-05T05:24:09.548Z,16.63
2023-02-05T05:26:36.303Z,17.42
2023-02-05T05:29:03.029Z,17.02
2023-02-05T05:31:30.212Z,17.73
2023-02-05T05:33:56.817Z,17.23
2023-02-05T05:36:23.456Z,17.85
2023-02-05T05:38:50.119Z,16.85
2023-02-05T05:41:39.814Z,16.30
2023-02-05T05:44:10.086Z,16.15
2023-02-05T05:46:36.905Z,15.48
2023-02-05T05:49:03.635Z,14.30
2023-02-05T05:51:32.378Z,15.80
2023-02-05T05:53:59.037Z,14.48
2023-02-05T05:56:25.628Z,13.65
2023-02-05T05:58:52.606Z,14.45
2023-02-05T06:01:21.846Z,13.43
2023-02-05T06:03:48.740Z,12.73
2023-02-05T06:06:15.374Z,14.15
2023-02-05T06:08:42.056Z,17.20
2023-02-05T06:11:08.746Z,18.50
2023-02-05T06:13:35.403Z,18.75
2023-02-05T06:16:02.450Z,19.08
2023-02-05T06:18:29.980Z,18.25
2023-02-05T06:20:56.674Z,14.38
2023-02-05T06:23:23.335Z,18.75
2023-02-05T06:25:49.914Z,19.65
2023-02-05T06:28:16.605Z,20.35
2023-02-05T06:30:43.351Z,19.70
2023-02-05T06:33:12.548Z,27.67
2023-02-05T06:35:40.717Z,22.95
2023-02-05T06:38:07.632Z,18.50
2023-02-05T06:40:34.340Z,24.02
2023-02-05T06:43:00.949Z,24.13
2023-02-05T06:45:27.763Z,20.15
2023-02-05T06:47:55.932Z,18.05
2023-02-05T06:50:23.808Z,21.05
2023-02-05T06:52:51.229Z,30.10
2023-02-05T06:55:18.604Z,23.88
2023-02-05T06:57:45.215Z,23.08
2023-02-05T07:00:12.711Z,23.30
2023-02-05T07:02:39.412Z,33.10
2023-02-05T07:05:06.327Z,25.90
2023-02-05T07:07:33.652Z,29.30
2023-02-05T07:10:00.532Z,27.90
2023-02-05T07:12:27.168Z,32.65
2023-02-05T07:14:53.797Z,36.30
2023-02-05T07:17:20.817Z,36.92
2023-02-05T07:19:47.453Z,42.15
2023-02-05T07:22:14.916Z,39.63
2023-02-05T07:24:41.584Z,35.17
2023-02-05T07:27:08.326Z,27.95
2023-02-05T07:29:34.918Z,29.55
2023-02-05T07:32:01.629Z,30.83
2023-02-05T07:34:28.292Z,29.08
2023-02-05T07:36:55.316Z,36.92
2023-02-05T07:39:21.940Z,37.08
2023-02-05T07:41:48.615Z,30.30
2023-02-05T07:44:25.489Z,31.65
2023-02-05T07:46:52.215Z,38.70
2023-02-05T07:49:19.508Z,35.03
2023-02-05T07:51:47.246Z,40.67
2023-02-05T07:54:15.501Z,39.60
2023-02-05T07:56:42.500Z,45.10
2023-02-05T07:59:09.666Z,38.80
2023-02-05T08:01:36.396Z,39.78
2023-02-05T08:04:03.103Z,407.35
2023-02-05T08:06:29.861Z,63.13
2023-02-05T08:08:57.517Z,64.85
2023-02-05T08:11:24.144Z,239.90
2023-02-05T08:13:50.899Z,71.38
2023-02-05T08:16:17.999Z,59.88
2023-02-05T08:18:49.637Z,64.80
2023-02-05T08:21:16.972Z,49.92
2023-02-05T08:23:43.661Z,49.95
2023-02-05T08:26:10.539Z,55.63
2023-02-05T08:28:37.153Z,51.00
2023-02-05T08:31:10.379Z,60.15
2023-02-05T08:33:36.977Z,61.60
2023-02-05T08:36:04.184Z,74.55
2023-02-05T08:38:30.787Z,86.13
2023-02-05T08:40:57.804Z,99.00
2023-02-05T08:43:24.608Z,88.05
2023-02-05T08:45:51.217Z,79.88
2023-02-05T08:48:18.372Z,113.15
2023-02-05T08:50:46.014Z,69.57
2023-02-05T08:53:12.607Z,70.20
2023-02-05T08:55:39.200Z,220.90
2023-02-05T08:58:05.921Z,68.60
2023-02-05T09:00:33.143Z,74.72
2023-02-05T09:02:59.781Z,80.45
2023-02-05T09:05:26.392Z,85.13
2023-02-05T09:07:53.318Z,126.47
2023-02-05T09:10:20.298Z,99.13
2023-02-05T09:12:48.616Z,118.10
2023-02-05T09:15:15.208Z,118.72
2023-02-05T09:17:41.822Z,101.50
2023-02-05T09:20:09.257Z,100.53
2023-02-05T09:22:35.865Z,86.25
2023-02-05T09:25:02.465Z,93.18
2023-02-05T09:27:30.334Z,102.68
2023-02-05T09:29:56.953Z,120.72
2023-02-05T09:32:24.535Z,108.32
2023-02-05T09:34:51.171Z,101.85
2023-02-05T09:37:18.603Z,85.50
2023-02-05T09:40:18.816Z,113.82
2023-02-05T09:42:43.808Z,106.18
2023-02-05T09:45:25.956Z,90.65
2023-02-05T09:48:04.584Z,114.20
2023-02-05T09:50:31.781Z,96.03
2023-02-05T09:53:09.502Z,105.05
2023-02-05T09:55:39.891Z,102.90
2023-02-05T09:58:11.648Z,98.45
2023-02-05T10:00:44.235Z,107.65
2023-02-05T10:03:29.827Z,82.97
2023-02-05T10:06:02.348Z,94.78
2023-02-05T10:08:37.997Z,75.78
2023-02-05T10:11:18.164Z,64.70
2023-02-05T10:14:04.919Z,43.95
2023-02-05T10:16:43.538Z,43.47
2023-02-05T10:19:39.215Z,36.47
2023-02-05T10:25:18.625Z,28.38
2023-02-05T10:28:03.880Z,34.97
2023-02-05T10:30:57.491Z,30.95
2023-02-05T10:33:55.827Z,28.17
2023-02-05T10:36:25.566Z,31.35
2023-02-05T10:38:55.804Z,26.25
2023-02-05T10:41:36.026Z,27.08
2023-02-05T10:44:11.909Z,23.55
2023-02-05T10:46:40.567Z,26.95
2023-02-05T10:49:20.152Z,24.38
2023-02-05T10:51:46.817Z,22.00
2023-02-05T10:54:30.272Z,26.70
2023-02-05T10:56:58.259Z,21.00
2023-02-05T10:59:29.839Z,24.92
2023-02-05T11:02:05.952Z,23.35
2023-02-05T11:04:46.853Z,18.75
2023-02-05T11:07:20.977Z,23.75
2023-02-05T11:09:47.659Z,23.38
2023-02-05T11:12:29.043Z,26.10
2023-02-05T11:14:59.043Z,20.40
2023-02-05T11:17:33.717Z,25.98
2023-02-05T11:20:06.288Z,20.00
2023-02-05T11:22:35.291Z,20.33
2023-02-05T11:25:07.301Z,17.58
2023-02-05T11:27:35.213Z,20.63
2023-02-05T11:30:52.045Z,21.63
2023-02-05T11:33:28.375Z,20.85
2023-02-05T11:36:01.137Z,17.25
2023-02-05T11:38:57.068Z,19.42
2023-02-05T11:41:51.935Z,20.20
2023-02-05T11:44:30.114Z,20.80
2023-02-05T11:47:00.353Z,24.77
2023-02-05T11:49:31.437Z,23.88
2023-02-05T11:51:58.799Z,20.73
2023-02-05T11:54:31.693Z,25.50
2023-02-05T11:57:14.496Z,21.92
2023-02-05T11:59:41.509Z,35.50
2023-02-05T12:02:30.196Z,31.55
2023-02-05T12:05:05.798Z,30.80
2023-02-05T12:07:53.909Z,23.55
2023-02-05T12:11:00.976Z,15.07
2023-02-05T12:13:48.228Z,21.27
2023-02-05T12:16:48.022Z,15.57
2023-02-05T12:19:25.044Z,15.98
2023-02-05T12:22:15.556Z,14.45
2023-02-05T12:24:47.243Z,11.25
2023-02-05T12:27:32.300Z,9.75
2023-02-05T12:33:12.159Z,10.65
2023-02-05T12:35:52.627Z,8.55
2023-02-05T12:38:47.086Z,13.77
2023-02-05T12:41:44.576Z,9.73
2023-02-05T12:44:44.973Z,10.23
2023-02-05T12:47:28.227Z,8.25
2023-02-05T12:50:31.995Z,9.63
2023-02-05T12:53:04.446Z,10.75
2023-02-05T12:55:47.950Z,14.52
2023-02-05T12:58:16.896Z,15.63
2023-02-05T13:00:54.339Z,15.35
2023-02-05T13:03:42.062Z,19.60
2023-02-05T13:06:32.558Z,18.08
2023-02-05T13:09:06.500Z,21.33
2023-02-05T13:11:56.290Z,25.60
2023-02-05T13:14:28.552Z,28.73
2023-02-05T13:17:05.953Z,29.98
2023-02-05T13:19:41.115Z,29.48
2023-02-05T13:22:40.734Z,35.30
2023-02-05T13:25:43.016Z,38.40
2023-02-05T13:28:40.288Z,33.38
2023-02-05T13:31:20.751Z,33.58
2023-02-05T13:33:48.311Z,29.30
2023-02-05T13:36:28.587Z,35.95
2023-02-05T13:39:22.590Z,34.95
2023-02-05T13:42:24.972Z,36.40
2023-02-05T13:45:23.829Z,45.35
2023-02-05T13:48:15.468Z,42.67
2023-02-05T13:51:27.588Z,66.32
2023-02-05T13:54:16.168Z,52.35
2023-02-05T13:56:55.748Z,62.22
2023-02-05T13:59:30.195Z,74.35
2023-02-05T14:02:00.280Z,67.80
2023-02-05T14:04:37.835Z,88.20
2023-02-05T14:07:08.556Z,75.30
2023-02-05T14:09:52.584Z,79.22
2023-02-05T14:12:25.667Z,73.40
2023-02-05T14:15:17.318Z,66.63
2023-02-05T14:17:44.091Z,61.55
2023-02-05T14:20:26.004Z,47.17
2023-02-05T14:22:53.467Z,51.75
2023-02-05T14:25:35.616Z,52.17
2023-02-05T14:28:03.761Z,41.25
2023-02-05T14:30:30.706Z,42.28
2023-02-05T14:33:04.179Z,38.25
2023-02-05T14:35:33.316Z,38.83
2023-02-05T14:38:03.113Z,36.15
2023-02-05T14:40:37.031Z,31.27
2023-02-05T14:43:16.183Z,31.65
2023-02-05T14:45:47.173Z,32.15
2023-02-05T14:48:31.840Z,34.70
2023-02-05T14:51:08.380Z,35.35
2023-02-05T14:53:37.860Z,28.35
2023-02-05T14:56:05.243Z,34.28
2023-02-05T14:58:45.004Z,34.00
2023-02-05T15:01:35.698Z,30.20
2023-02-05T15:04:04.502Z,27.50
2023-02-05T15:06:39.857Z,26.75
2023-02-05T15:09:41.508Z,27.77
2023-02-05T15:12:08.078Z,32.35
2023-02-05T15:14:50.746Z,29.77
2023-02-05T15:17:17.498Z,28.10
2023-02-05T15:19:49.939Z,29.88
2023-02-05T15:22:37.892Z,28.98
2023-02-05T15:25:14.566Z,26.27
2023-02-05T15:27:49.736Z,31.02
2023-02-05T15:30:22.728Z,29.42
2023-02-05T15:33:15.500Z,32.22
2023-02-05T15:35:45.207Z,36.72
2023-02-05T15:38:21.073Z,39.47
2023-02-05T15:40:48.160Z,45.30
2023-02-05T15:43:20.600Z,45.40
2023-02-05T15:45:47.685Z,38.22
2023-02-05T15:48:18.687Z,36.60
2023-02-05T15:50:48.990Z,39.58
2023-02-05T15:53:36.212Z,36.53
2023-02-05T15:56:16.338Z,37.35
2023-02-05T15:58:52.149Z,41.85
2023-02-05T16:01:47.752Z,38.83
2023-02-05T16:06:54.533Z,35.22
2023-02-05T16:09:24.123Z,39.65
2023-02-05T16:11:50.733Z,41.13
2023-02-05T16:14:23.153Z,35.50
2023-02-05T16:16:55.725Z,36.08
2023-02-05T16:19:44.812Z,41.85
2023-02-05T16:22:44.154Z,39.70
2023-02-05T16:25:27.783Z,45.28
2023-02-05T16:27:56.225Z,46.90
2023-02-05T16:30:35.128Z,48.75
2023-02-05T16:33:04.006Z,44.88
2023-02-05T16:35:40.768Z,52.33
2023-02-05T16:38:18.336Z,47.97
2023-02-05T16:40:48.841Z,54.28
2023-02-05T16:43:36.888Z,61.33
2023-02-05T16:46:06.552Z,61.38
2023-02-05T16:48:55.180Z,68.88
2023-02-05T16:51:32.988Z,66.97
2023-02-05T16:54:09.915Z,51.53
2023-02-05T16:56:44.183Z,49.25
2023-02-05T16:59:17.828Z,49.63
2023-02-05T17:01:45.194Z,49.58
2023-02-05T17:04:26.866Z,50.90
2023-02-05T17:06:59.837Z,47.60
2023-02-05T17:09:38.645Z,47.97
2023-02-05T17:12:32.643Z,47.45
2023-02-05T17:15:24.971Z,48.38
2023-02-05T17:17:57.804Z,45.47
2023-02-05T17:20:27.922Z,46.88
2023-02-05T17:23:00.748Z,49.90
2023-02-05T17:25:30.432Z,53.33
2023-02-05T17:27:57.305Z,56.28
2023-02-05T17:30:24.053Z,56.67
2023-02-05T17:32:51.042Z,54.17
2023-02-05T17:35:21.821Z,60.25
2023-02-05T17:37:48.774Z,54.60
2023-02-05T17:40:15.594Z,59.95
2023-02-05T17:42:42.731Z,54.90
2023-02-05T17:45:23.443Z,55.22
2023-02-05T17:47:50.223Z,62.17
2023-02-05T17:50:17.520Z,59.90
2023-02-05T17:52:45.299Z,49.03
2023-02-05T17:55:18.799Z,52.58
2023-02-05T17:57:46.343Z,57.88
2023-02-05T18:00:21.886Z,55.38
2023-02-05T18:02:49.111Z,56.88
2023-02-05T18:05:15.961Z,50.38
2023-02-05T18:07:49.165Z,52.42
2023-02-05T18:10:23.272Z,44.70
2023-02-05T18:12:51.619Z,44.03
2023-02-05T18:15:18.644Z,51.85
2023-02-05T18:17:45.748Z,55.70
2023-02-05T18:20:13.521Z,55.90
2023-02-05T18:22:40.564Z,38.55
2023-02-05T18:25:07.461Z,44.10
2023-02-05T18:27:34.235Z,44.88
2023-02-05T18:30:00.981Z,49.03
2023-02-05T18:32:27.820Z,51.17
2023-02-05T18:34:54.477Z,54.38
2023-02-05T18:37:21.400Z,58.92
2023-02-05T18:39:48.172Z,64.13
2023-02-05T18:42:14.904Z,61.03
2023-02-05T18:44:41.619Z,60.55
2023-02-05T18:47:08.830Z,58.85
2023-02-05T18:49:35.616Z,55.53
2023-02-05T18:52:05.396Z,56.85
2023-02-05T18:54:32.020Z,63.78
2023-02-05T18:56:58.822Z,73.80
2023-02-05T18:59:25.584Z,90.35
2023-02-05T19:01:53.076Z,90.53
2023-02-05T19:04:20.757Z,79.85
2023-02-05T19:06:53.404Z,90.05
2023-02-05T19:09:22.046Z,91.32
2023-02-05T19:11:49.759Z,91.15
2023-02-05T19:14:19.093Z,71.70
2023-02-05T19:16:47.093Z,75.47
2023-02-05T19:19:20.100Z,76.40
2023-02-05T19:21:50.572Z,81.57
2023-02-05T19:24:18.350Z,96.55
2023-02-05T19:26:44.978Z,76.70
2023-02-05T19:29:14.769Z,88.60
2023-02-05T19:31:42.040Z,84.57
2023-02-05T19:34:08.764Z,91.82
2023-02-05T19:36:35.796Z,88.70
2023-02-05T19:39:05.374Z,89.97
2023-02-05T19:41:33.575Z,84.82
2023-02-05T19:44:02.241Z,91.13
2023-02-05T19:46:31.870Z,96.60
2023-02-05T19:49:05.081Z,95.65
2023-02-05T19:51:31.879Z,110.13
2023-02-05T19:54:00.193Z,136.82
2023-02-05T19:56:26.957Z,134.43
2023-02-05T19:58:55.354Z,132.20
2023-02-05T20:01:27.818Z,182.82
2023-02-05T20:03:57.556Z,226.30
2023-02-05T20:06:27.716Z,243.23
2023-02-05T20:08:54.704Z,654.22
2023-02-05T20:11:21.468Z,249.32
2023-02-05T20:13:49.020Z,299.48
2023-02-05T20:16:20.933Z,241.20
2023-02-05T20:18:53.299Z,229.32
2023-02-05T20:21:20.052Z,219.98
2023-02-05T20:23:48.161Z,365.05
2023-02-05T20:26:18.783Z,383.52
2023-02-05T20:29:09.274Z,217.45
2023-02-05T20:31:41.674Z,150.23
2023-02-05T20:34:22.107Z,184.60
2023-02-05T20:36:52.217Z,105.32
2023-02-05T20:39:20.201Z,70.72
2023-02-05T20:41:49.080Z,59.65
2023-02-05T20:44:15.775Z,66.25
2023-02-05T20:46:42.950Z,59.63
2023-02-05T20:49:09.632Z,66.75
2023-02-05T20:51:37.268Z,64.85
2023-02-05T20:54:05.046Z,69.47
2023-02-05T20:56:32.077Z,83.03
2023-02-05T20:59:00.845Z,68.28
2023-02-05T21:01:29.533Z,69.82
2023-02-05T21:03:58.882Z,79.93
2023-02-05T21:06:27.617Z,76.45
2023-02-05T21:08:54.864Z,88.47
2023-02-05T21:11:23.110Z,76.90
2023-02-05T21:13:51.429Z,81.70
2023-02-05T21:16:20.978Z,76.90
2023-02-05T21:18:49.084Z,96.55
2023-02-05T21:21:25.233Z,76.75
2023-02-05T21:23:57.189Z,94.85
2023-02-05T21:26:30.988Z,88.57
2023-02-05T21:29:00.613Z,106.57
2023-02-05T21:31:36.024Z,108.50
2023-02-05T21:34:04.277Z,94.30
2023-02-05T21:36:31.430Z,106.70
2023-02-05T21:38:58.282Z,102.78
2023-02-05T21:41:25.111Z,104.03
2023-02-05T21:43:54.866Z,99.07
2023-02-05T21:46:22.903Z,83.78
2023-02-05T21:48:54.382Z,91.72
2023-02-05T21:51:23.300Z,94.00
2023-02-05T21:53:58.775Z,93.65
2023-02-05T21:56:43.787Z,99.22
2023-02-05T21:59:11.934Z,99.13
2023-02-05T22:01:39.070Z,86.38
2023-02-05T22:04:10.509Z,89.72
2023-02-05T22:06:37.570Z,91.78
2023-02-05T22:09:06.663Z,85.38
2023-02-05T22:11:34.679Z,86.25
2023-02-05T22:14:01.297Z,84.95
2023-02-05T22:16:30.407Z,81.07
2023-02-05T22:18:58.186Z,80.10
2023-02-05T22:21:30.438Z,79.00
2023-02-05T22:23:59.739Z,65.55
2023-02-05T22:26:30.170Z,59.60
2023-02-05T22:28:59.144Z,43.13
2023-02-05T22:31:26.868Z,44.60
2023-02-05T22:33:53.592Z,37.63
2023-02-05T22:36:22.807Z,41.88
2023-02-05T22:38:50.764Z,36.88
2023-02-05T22:41:23.826Z,34.95
2023-02-05T22:43:51.119Z,28.95
2023-02-05T22:46:20.463Z,23.85
2023-02-05T22:48:49.404Z,25.40
2023-02-05T22:51:19.470Z,32.20
2023-02-05T22:53:46.282Z,28.90
2023-02-05T22:56:13.311Z,25.65
2023-02-05T22:58:45.429Z,31.80
2023-02-05T23:01:33.009Z,29.73
2023-02-05T23:04:01.743Z,32.88
2023-02-05T23:06:33.958Z,29.45
2023-02-05T23:09:03.776Z,33.58
2023-02-05T23:11:31.586Z,28.83
2023-02-05T23:13:59.743Z,25.27
2023-02-05T23:16:29.709Z,31.10
2023-02-05T23:18:59.296Z,30.27
2023-02-05T23:21:28.188Z,30.13
2023-02-05T23:23:55.146Z,29.40
2023-02-05T23:26:34.433Z,56.80
2023-02-05T23:29:01.460Z,41.22
2023-02-05T23:31:28.592Z,26.88
2023-02-05T23:33:55.559Z,22.38
2023-02-05T23:36:22.387Z,26.00
2023-02-05T23:38:49.507Z,19.50
2023-02-05T23:41:35.094Z,24.75
2023-02-05T23:44:15.152Z,23.88
2023-02-05T23:46:43.184Z,18.80
2023-02-05T23:49:10.617Z,24.67
2023-02-05T23:51:37.919Z,22.90
2023-02-05T23:54:05.692Z,18.35
2023-02-05T23:56:32.819Z,24.90
2023-02-05T23:59:00.169Z,23.10
